Time;durP1;ratioP1;P1;durP2;ratioP2;P2;SDS_P1;SDS_P2;PMS_P1;PMS_P2;Temp;Humidity;BMP_temperature;BMP_pressure;BME280_temperature;BME280_humidity;BME280_pressure;Samples;Min_cycle;Max_cycle;Signal;HPM_P1;HPM_P2
2020/12/28 00:00:32;;;;;;;37.35;20.38;;;;;;;1.00;92.25;98795.69;4993772;28;20392;-71
2020/12/28 00:02:58;;;;;;;42.25;20.70;;;;;;;0.96;92.10;98773.09;4993434;28;20081;-71
2020/12/28 00:05:24;;;;;;;38.45;20.25;;;;;;;0.86;91.94;98746.41;4976892;28;20030;-72
2020/12/28 00:07:50;;;;;;;37.72;19.15;;;;;;;0.88;91.83;98745.50;4984925;28;20416;-71
2020/12/28 00:10:17;;;;;;;38.90;18.42;;;;;;;1.11;91.75;98774.19;4956694;28;20035;-72
2020/12/28 00:12:48;;;;;;;42.05;19.88;;;;;;;0.98;91.81;98759.94;4974443;28;20031;-72
2020/12/28 00:15:28;;;;;;;38.33;18.70;;;;;;;1.13;91.67;98760.06;4942408;28;20035;-71
2020/12/28 00:17:55;;;;;;;38.00;19.20;;;;;;;1.17;91.59;98768.69;4973748;28;20046;-80
2020/12/28 00:20:23;;;;;;;30.63;16.33;;;;;;;1.10;92.01;98747.09;4940934;28;20039;-71
2020/12/28 00:22:49;;;;;;;32.60;17.17;;;;;;;1.21;92.02;98761.50;4973090;28;20435;-71
2020/12/28 00:25:17;;;;;;;33.65;17.23;;;;;;;1.25;91.73;98757.78;4956788;28;20035;-71
2020/12/28 00:27:42;;;;;;;34.83;17.27;;;;;;;1.24;91.77;98754.31;4974048;28;20031;-71
2020/12/28 00:30:08;;;;;;;33.58;16.75;;;;;;;1.22;91.77;98753.53;4956733;28;20531;-72
2020/12/28 00:32:37;;;;;;;30.10;16.10;;;;;;;1.04;91.69;98710.59;4974116;28;20057;-71
2020/12/28 00:35:06;;;;;;;29.70;16.27;;;;;;;1.28;91.82;98732.25;4956730;28;20067;-71
2020/12/28 00:37:32;;;;;;;30.10;16.42;;;;;;;1.01;91.77;98708.13;4974217;28;20039;-71
2020/12/28 00:39:57;;;;;;;31.00;15.82;;;;;;;1.22;92.10;98736.94;4956567;28;20507;-71
2020/12/28 00:42:23;;;;;;;31.30;16.67;;;;;;;1.00;91.88;98689.81;4956701;28;20037;-71
2020/12/28 00:44:49;;;;;;;31.65;16.15;;;;;;;1.35;91.92;98740.69;4977466;28;20031;-71
2020/12/28 00:47:14;;;;;;;30.98;15.60;;;;;;;1.18;91.90;98720.47;4944675;28;20082;-71
2020/12/28 00:49:40;;;;;;;29.65;16.02;;;;;;;1.22;91.74;98723.78;4977810;28;20042;-71
2020/12/28 00:52:05;;;;;;;28.25;15.23;;;;;;;1.32;91.68;98722.44;4977791;28;20058;-72
2020/12/28 00:54:33;;;;;;;27.10;15.02;;;;;;;1.44;91.33;98730.59;4978070;28;20396;-72
2020/12/28 00:56:58;;;;;;;29.98;15.27;;;;;;;1.44;91.27;98721.84;4977461;28;20090;-72
2020/12/28 00:59:24;;;;;;;31.10;15.57;;;;;;;1.36;91.59;98708.25;4977692;28;20035;-71
2020/12/28 01:01:56;;;;;;;27.80;13.80;;;;;;;1.47;91.31;98710.38;4960563;28;20042;-72
2020/12/28 01:04:22;;;;;;;28.25;14.77;;;;;;;1.35;91.57;98701.28;4977758;28;20416;-72
2020/12/28 01:06:47;;;;;;;28.25;14.90;;;;;;;1.46;91.66;98714.78;4960580;28;20034;-70
2020/12/28 01:09:13;;;;;;;27.73;14.85;;;;;;;1.46;91.55;98698.16;4978648;28;20054;-71
2020/12/28 01:11:39;;;;;;;27.70;14.43;;;;;;;1.43;91.88;98693.88;4996283;28;20101;-71
2020/12/28 01:14:04;;;;;;;26.90;14.25;;;;;;;1.35;91.55;98680.25;4979752;28;20042;-71
2020/12/28 01:16:30;;;;;;;27.17;14.10;;;;;;;1.27;91.70;98667.50;4979896;28;20038;-70
2020/12/28 01:18:55;;;;;;;27.50;13.93;;;;;;;1.50;91.52;98686.56;4963386;28;20104;-72
2020/12/28 01:21:22;;;;;;;29.13;14.85;;;;;;;1.43;91.54;98672.88;4979807;28;20120;-72
2020/12/28 01:23:48;;;;;;;25.83;14.23;;;;;;;1.44;91.33;98657.03;4963523;28;20032;-72
2020/12/28 01:26:17;;;;;;;26.90;14.60;;;;;;;1.41;91.19;98653.69;4996357;28;20037;-72
2020/12/28 01:28:43;;;;;;;28.92;14.48;;;;;;;1.53;91.10;98660.97;4996487;28;20102;-72
2020/12/28 01:31:09;;;;;;;25.33;13.70;;;;;;;1.56;91.17;98665.25;4978960;28;20050;-71
2020/12/28 01:33:35;;;;;;;28.13;15.02;;;;;;;1.53;91.36;98650.47;4979023;28;20085;-72
2020/12/28 01:36:01;;;;;;;25.92;14.23;;;;;;;1.36;91.67;98616.31;4996263;28;20034;-73
2020/12/28 01:38:26;;;;;;;27.42;14.57;;;;;;;1.46;91.36;98632.47;4979344;28;20133;-72
2020/12/28 01:40:52;;;;;;;28.77;14.48;;;;;;;1.35;91.55;98606.69;4979128;28;20042;-70
2020/12/28 01:43:18;;;;;;;28.63;15.80;;;;;;;1.38;91.91;98620.56;4996266;28;20177;-71
2020/12/28 01:45:44;;;;;;;30.83;15.65;;;;;;;1.12;91.75;98566.66;4996467;28;20362;-73
2020/12/28 01:48:10;;;;;;;31.40;16.48;;;;;;;1.35;91.80;98606.69;4995834;28;20077;-75
2020/12/28 01:50:35;;;;;;;30.92;16.13;;;;;;;1.28;92.14;98594.81;4978946;28;20062;-72
2020/12/28 01:53:01;;;;;;;32.55;16.08;;;;;;;1.16;92.13;98585.75;4978382;28;20555;-72
2020/12/28 01:55:27;;;;;;;30.33;16.10;;;;;;;1.31;92.32;98610.41;4961804;28;20101;-71
2020/12/28 01:57:53;;;;;;;30.92;16.67;;;;;;;1.23;92.69;98607.31;4996050;28;20518;-70
2020/12/28 02:00:18;;;;;;;29.98;15.85;;;;;;;1.25;92.75;98606.28;4995747;28;20042;-70
2020/12/28 02:02:44;;;;;;;29.55;16.20;;;;;;;1.26;92.52;98592.25;4978629;28;20044;-73
2020/12/28 02:05:09;;;;;;;33.05;16.60;;;;;;;1.20;92.49;98582.03;4978223;28;20133;-73
2020/12/28 02:07:39;;;;;;;34.00;17.52;;;;;;;1.05;92.46;98551.25;4978633;28;20051;-73
2020/12/28 02:10:08;;;;;;;28.75;15.52;;;;;;;1.33;92.21;98595.41;4978875;28;20352;-72
2020/12/28 02:12:35;;;;;;;29.65;16.60;;;;;;;1.31;92.33;98594.66;4962874;28;20129;-72
2020/12/28 02:15:01;;;;;;;30.98;15.77;;;;;;;1.03;92.92;98559.22;4996016;28;20034;-79
2020/12/28 02:17:26;;;;;;;32.47;16.77;;;;;;;1.20;92.44;98561.03;4962758;28;20045;-71
2020/12/28 02:19:52;;;;;;;31.42;16.33;;;;;;;1.07;92.46;98554.69;4978532;28;20034;-74
2020/12/28 02:22:17;;;;;;;30.45;15.35;;;;;;;1.28;92.86;98589.56;4995273;28;20503;-73
2020/12/28 02:24:43;;;;;;;31.83;16.50;;;;;;;1.10;92.81;98555.38;4995529;28;20078;-75
2020/12/28 02:27:09;;;;;;;31.02;16.60;;;;;;;1.12;92.54;98545.66;4995131;28;20399;-72
2020/12/28 02:29:34;;;;;;;30.63;16.30;;;;;;;1.24;92.63;98574.84;4995408;28;20034;-72
2020/12/28 02:32:00;;;;;;;29.73;16.20;;;;;;;1.54;92.28;98588.25;4995766;28;20035;-72
2020/12/28 02:34:26;;;;;;;31.75;15.75;;;;;;;1.55;91.92;98584.72;4961651;28;20030;-72
2020/12/28 02:36:52;;;;;;;30.92;16.67;;;;;;;1.55;91.92;98577.69;4994181;28;20062;-74
2020/12/28 02:39:17;;;;;;;27.17;14.55;;;;;;;1.46;91.38;98544.00;4978120;28;20124;-72
2020/12/28 02:41:43;;;;;;;29.80;15.10;;;;;;;1.56;91.52;98573.28;4978143;28;20078;-72
2020/12/28 02:44:09;;;;;;;29.73;15.70;;;;;;;1.40;92.08;98545.13;4978062;28;20034;-73
2020/12/28 02:46:34;;;;;;;30.02;14.88;;;;;;;1.46;91.74;98522.13;4978490;28;20102;-73
2020/12/28 02:49:00;;;;;;;29.02;15.27;;;;;;;1.54;91.93;98551.47;4977692;28;20057;-73
2020/12/28 02:51:26;;;;;;;28.08;14.68;;;;;;;1.46;91.82;98514.25;4977930;28;20030;-72
2020/12/28 02:53:51;;;;;;;31.40;16.40;;;;;;;1.67;91.35;98529.75;4978184;28;20034;-73
2020/12/28 02:56:17;;;;;;;29.02;15.50;;;;;;;1.62;91.32;98518.59;4977785;28;20034;-73
2020/12/28 02:58:42;;;;;;;31.48;16.02;;;;;;;1.76;91.23;98522.31;4995266;28;20037;-71
2020/12/28 03:01:08;;;;;;;32.38;15.65;;;;;;;1.44;90.88;98477.50;4995087;28;20480;-71
2020/12/28 03:03:33;;;;;;;29.83;14.98;;;;;;;1.76;91.32;98528.44;4995057;28;20041;-70
2020/12/28 03:05:59;;;;;;;31.27;14.90;;;;;;;1.77;91.43;98519.63;4961640;28;20034;-72
2020/12/28 03:08:24;;;;;;;30.63;15.35;;;;;;;1.77;91.15;98513.50;4995387;28;20061;-71
2020/12/28 03:10:50;;;;;;;30.00;14.70;;;;;;;1.82;90.93;98527.25;4977868;28;20034;-71
2020/12/28 03:13:16;;;;;;;29.80;15.60;;;;;;;1.69;91.00;98512.13;4976726;28;20026;-72
2020/12/28 03:15:41;;;;;;;25.92;13.80;;;;;;;1.75;90.97;98525.88;4994935;28;20034;-72
2020/12/28 03:18:06;;;;;;;28.20;14.27;;;;;;;1.69;91.29;98513.91;4977022;28;20085;-73
2020/12/28 03:20:32;;;;;;;29.52;15.32;;;;;;;1.70;91.25;98508.56;4977454;28;20166;-72
2020/12/28 03:22:57;;;;;;;26.83;15.02;;;;;;;1.81;91.42;98536.06;4994711;28;20034;-72
2020/12/28 03:25:23;;;;;;;30.67;15.65;;;;;;;1.67;91.51;98507.88;4992828;28;20038;-71
2020/12/28 03:27:56;;;;;;;30.52;15.98;;;;;;;1.73;91.97;98518.06;5110944;27;20717;-72
2020/12/28 03:30:22;;;;;;;29.45;15.13;;;;;;;1.71;91.71;98520.75;5039268;28;20040;-72
2020/12/28 03:32:47;;;;;;;26.15;13.63;;;;;;;1.68;91.64;98517.47;5072253;28;20411;-72
2020/12/28 03:35:13;;;;;;;24.88;13.38;;;;;;;1.71;91.65;98522.53;5055806;28;20032;-72
2020/12/28 03:37:39;;;;;;;28.17;14.65;;;;;;;1.64;91.98;98518.53;5072562;28;20078;-71
2020/12/28 03:40:05;;;;;;;29.10;14.43;;;;;;;1.65;92.26;98521.09;5090436;28;20076;-73
2020/12/28 03:42:30;;;;;;;25.30;13.63;;;;;;;1.58;91.80;98464.53;5071903;28;20111;-73
2020/12/28 03:44:55;;;;;;;27.90;13.65;;;;;;;1.71;91.71;98483.13;5072159;28;20040;-72
2020/12/28 03:47:21;;;;;;;27.25;12.93;;;;;;;1.90;91.31;98501.41;5089744;28;20082;-72
2020/12/28 03:49:46;;;;;;;26.88;14.32;;;;;;;1.87;90.89;98484.03;5072711;28;20127;-73
2020/12/28 03:52:13;;;;;;;26.13;14.43;;;;;;;1.94;91.09;98495.06;5071814;28;20101;-73
2020/12/28 03:54:38;;;;;;;26.50;13.40;;;;;;;1.93;90.98;98503.84;5055380;28;20392;-72
2020/12/28 03:57:04;;;;;;;26.33;13.23;;;;;;;1.91;91.27;98506.56;5089961;28;20119;-72
2020/12/28 03:59:29;;;;;;;26.63;13.95;;;;;;;1.84;91.17;98494.72;5071924;28;20035;-73
2020/12/28 04:01:55;;;;;;;26.65;14.00;;;;;;;1.87;91.11;98501.56;5072099;28;20434;-72
2020/12/28 04:04:20;;;;;;;27.20;14.55;;;;;;;1.92;91.16;98496.91;5055503;28;20370;-72
2020/12/28 04:06:46;;;;;;;24.67;13.60;;;;;;;1.94;90.98;98480.16;5089801;28;20033;-71
2020/12/28 04:09:11;;;;;;;26.05;13.68;;;;;;;1.96;91.18;98495.84;5089472;28;20103;-71
2020/12/28 04:11:36;;;;;;;23.15;12.20;;;;;;;2.03;90.87;98484.06;5089919;28;20032;-72
2020/12/28 04:14:02;;;;;;;24.08;12.77;;;;;;;2.01;90.78;98491.16;5055120;28;20028;-72
2020/12/28 04:16:27;;;;;;;27.92;14.00;;;;;;;2.01;91.03;98481.50;5071246;28;20033;-71
2020/12/28 04:18:53;;;;;;;29.13;14.43;;;;;;;1.88;90.99;98458.56;5054897;28;20037;-72
2020/12/28 04:21:18;;;;;;;26.25;13.90;;;;;;;1.90;90.90;98451.44;5071124;28;20547;-72
2020/12/28 04:23:43;;;;;;;27.60;13.45;;;;;;;1.95;90.90;98454.69;5071250;28;20038;-73
2020/12/28 04:26:09;;;;;;;26.25;13.65;;;;;;;1.95;91.37;98459.94;5083333;28;20086;-77
2020/12/28 04:28:34;;;;;;;25.20;13.13;;;;;;;1.95;91.34;98465.22;5051189;28;20090;-73
2020/12/28 04:31:00;;;;;;;32.28;14.18;;;;;;;1.73;91.32;98426.06;5034926;28;20470;-73
2020/12/28 04:33:25;;;;;;;28.27;13.63;;;;;;;2.00;91.60;98471.06;5050764;28;20033;-74
2020/12/28 04:35:51;;;;;;;25.20;13.57;;;;;;;1.90;91.27;98440.94;5069056;28;20489;-73
2020/12/28 04:38:16;;;;;;;29.25;14.23;;;;;;;1.92;91.43;98449.56;5043000;28;20029;-75
2020/12/28 04:40:42;;;;;;;27.33;13.82;;;;;;;1.57;92.20;98412.91;5055529;28;20036;-74
2020/12/28 04:43:12;;;;;;;27.45;13.60;;;;;;;1.90;92.41;98459.34;5038043;28;20044;-72
2020/12/28 04:45:38;;;;;;;38.47;18.30;;;;;;;1.85;92.67;98459.59;5055530;28;20079;-73
2020/12/28 04:48:11;;;;;;;26.13;13.77;;;;;;;1.92;92.60;98457.47;5055410;28;20128;-71
2020/12/28 04:50:37;;;;;;;27.73;13.67;;;;;;;1.84;92.33;98438.66;5038140;28;20111;-72
2020/12/28 04:53:05;;;;;;;28.33;13.95;;;;;;;1.72;92.83;98438.34;5038064;28;20754;-72
2020/12/28 04:55:31;;;;;;;30.60;14.00;;;;;;;1.71;92.94;98413.00;5037551;28;20096;-72
2020/12/28 04:57:58;;;;;;;27.60;13.43;;;;;;;2.00;92.41;98435.09;5055661;28;20048;-72
2020/12/28 05:00:23;;;;;;;26.48;12.57;;;;;;;1.79;92.35;98401.22;5037515;28;20033;-72
2020/12/28 05:02:49;;;;;;;26.73;13.40;;;;;;;1.96;92.30;98430.09;5055274;28;20041;-71
2020/12/28 05:05:14;;;;;;;26.55;13.50;;;;;;;1.94;92.76;98418.81;5055139;28;20029;-72
2020/12/28 05:07:48;;;;;;;24.30;13.50;;;;;;;1.97;92.89;98423.91;5005021;28;20462;-72
2020/12/28 05:10:23;;;;;;;26.27;12.98;;;;;;;1.89;92.71;98412.94;5037259;28;20517;-75
2020/12/28 05:12:49;;;;;;;26.20;13.05;;;;;;;1.97;92.73;98432.63;5037434;28;20120;-72
2020/12/28 05:15:14;;;;;;;26.75;13.73;;;;;;;1.85;93.10;98437.72;5054747;28;20060;-73
2020/12/28 05:17:40;;;;;;;29.52;14.18;;;;;;;1.80;93.60;98426.59;5020629;28;20043;-74
2020/12/28 05:20:05;;;;;;;30.05;14.15;;;;;;;1.88;93.33;98434.91;5054919;28;20044;-71
2020/12/28 05:22:31;;;;;;;28.60;14.38;;;;;;;1.92;93.70;98433.81;5054447;28;20121;-72
2020/12/28 05:24:57;;;;;;;30.02;15.27;;;;;;;1.50;93.85;98381.75;5054709;28;20032;-72
2020/12/28 05:27:23;;;;;;;25.42;12.88;;;;;;;1.89;94.17;98420.84;5056100;28;20052;-72
2020/12/28 05:29:49;;;;;;;27.58;13.50;;;;;;;2.02;93.48;98429.75;5037033;28;20131;-72
2020/12/28 05:32:16;;;;;;;24.73;13.45;;;;;;;1.87;93.61;98414.81;5036501;28;20128;-72
2020/12/28 05:34:46;;;;;;;28.52;13.18;;;;;;;2.03;93.62;98423.56;5054799;28;20029;-71
2020/12/28 05:37:16;;;;;;;25.83;14.25;;;;;;;1.96;93.80;98403.81;5037142;28;20033;-71
2020/12/28 05:39:42;;;;;;;27.70;13.98;;;;;;;2.00;94.19;98406.16;5037131;28;20032;-71
2020/12/28 05:42:12;;;;;;;27.23;13.68;;;;;;;2.03;93.72;98415.69;5020763;28;20048;-72
2020/12/28 05:44:39;;;;;;;27.48;13.88;;;;;;;2.00;93.90;98405.31;5036875;28;20489;-72
2020/12/28 05:47:11;;;;;;;26.67;13.43;;;;;;;1.92;94.16;98397.00;5054643;28;20446;-72
2020/12/28 05:49:39;;;;;;;31.80;13.65;;;;;;;2.03;93.91;98405.16;5053326;28;20036;-71
2020/12/28 05:52:06;;;;;;;23.90;13.43;;;;;;;1.88;93.92;98384.97;5036861;28;20033;-71
2020/12/28 05:54:34;;;;;;;28.55;13.35;;;;;;;1.89;94.40;98411.16;5054508;28;20437;-71
2020/12/28 05:56:59;;;;;;;28.27;15.00;;;;;;;1.66;94.55;98380.88;5036568;28;20120;-73
2020/12/28 05:59:25;;;;;;;30.25;14.65;;;;;;;1.74;94.57;98401.50;5053973;28;20061;-74
2020/12/28 06:01:51;;;;;;;27.45;13.98;;;;;;;1.75;94.91;98411.06;5036386;28;20044;-73
2020/12/28 06:04:18;;;;;;;30.13;14.32;;;;;;;1.82;95.24;98417.66;5053741;28;20499;-77
2020/12/28 06:06:44;;;;;;;27.75;13.50;;;;;;;1.75;94.42;98384.78;5054234;28;20127;-72
2020/12/28 06:09:10;;;;;;;29.17;13.93;;;;;;;1.89;94.42;98399.78;5036583;28;20036;-72
2020/12/28 06:11:37;;;;;;;24.83;12.80;;;;;;;1.82;94.63;98412.41;5053610;28;20033;-73
2020/12/28 06:14:13;;;;;;;26.10;13.15;;;;;;;1.76;94.71;98423.28;5054020;28;20111;-73
2020/12/28 06:16:38;;;;;;;25.77;12.05;;;;;;;1.89;94.69;98418.19;5053600;28;20040;-73
2020/12/28 06:19:04;;;;;;;23.42;12.52;;;;;;;1.93;94.25;98424.97;5036237;28;20029;-73
2020/12/28 06:21:37;;;;;;;27.52;13.05;;;;;;;1.91;94.00;98416.34;5035701;28;20033;-73
2020/12/28 06:24:03;;;;;;;25.65;12.55;;;;;;;1.69;94.06;98382.47;5035842;28;20025;-73
2020/12/28 06:26:29;;;;;;;23.92;11.80;;;;;;;2.00;93.79;98424.56;5053291;28;20490;-73
2020/12/28 06:29:07;;;;;;;22.30;10.70;;;;;;;1.97;93.75;98423.91;5035591;28;20059;-73
2020/12/28 06:31:33;;;;;;;24.63;12.18;;;;;;;1.93;93.97;98420.59;5035712;28;20086;-73
2020/12/28 06:33:59;;;;;;;28.13;13.13;;;;;;;1.95;93.83;98418.72;5019484;28;20432;-73
2020/12/28 06:36:25;;;;;;;23.73;12.15;;;;;;;1.92;93.81;98423.28;5053329;28;20045;-73
2020/12/28 06:38:57;;;;;;;25.77;12.50;;;;;;;1.81;93.84;98405.47;5053910;28;20029;-73
2020/12/28 06:41:30;;;;;;;27.73;13.27;;;;;;;1.82;94.47;98433.44;5018983;28;20036;-73
2020/12/28 06:44:01;;;;;;;28.98;13.77;;;;;;;1.90;94.27;98446.19;5053430;28;20315;-74
2020/12/28 06:46:27;;;;;;;24.40;12.82;;;;;;;1.75;94.52;98431.25;5052899;28;20402;-74
2020/12/28 06:48:57;;;;;;;26.75;13.80;;;;;;;1.94;94.31;98443.34;5035675;28;20028;-75
2020/12/28 06:51:23;;;;;;;28.30;13.30;;;;;;;1.87;93.96;98452.47;5035776;28;20078;-73
2020/12/28 06:53:55;;;;;;;27.90;13.13;;;;;;;1.97;93.99;98458.09;5035851;28;20390;-73
2020/12/28 06:56:24;;;;;;;28.75;14.65;;;;;;;2.04;93.55;98462.09;5053048;28;20041;-75
2020/12/28 06:59:00;;;;;;;27.98;14.48;;;;;;;2.03;93.71;98457.78;5053043;28;20033;-73
2020/12/28 07:01:27;;;;;;;29.88;14.98;;;;;;;2.01;93.79;98452.56;5034523;28;20053;-72
2020/12/28 07:03:53;;;;;;;29.80;14.45;;;;;;;2.04;93.96;98459.47;5035193;28;20029;-72
2020/12/28 07:06:19;;;;;;;30.60;14.43;;;;;;;1.95;93.86;98438.91;5052738;28;20036;-72
2020/12/28 07:08:45;;;;;;;31.50;14.45;;;;;;;1.93;94.01;98438.13;5052788;28;20052;-72
2020/12/28 07:11:11;;;;;;;32.03;14.55;;;;;;;1.97;94.03;98464.19;5053057;28;20459;-70
2020/12/28 07:13:36;;;;;;;28.17;14.70;;;;;;;1.72;94.26;98427.84;5034822;28;20049;-71
2020/12/28 07:16:06;;;;;;;29.02;14.50;;;;;;;1.99;94.03;98477.25;5035606;28;20509;-72
2020/12/28 07:18:35;;;;;;;30.02;14.60;;;;;;;1.91;93.82;98467.13;5052458;28;20091;-73
2020/12/28 07:21:03;;;;;;;28.60;14.00;;;;;;;1.63;93.97;98424.84;5035177;28;20090;-71
2020/12/28 07:23:30;;;;;;;29.23;13.70;;;;;;;1.83;93.56;98469.31;5052362;28;20109;-71
2020/12/28 07:26:09;;;;;;;26.88;13.18;;;;;;;1.98;94.25;98501.84;5034836;28;20044;-71
2020/12/28 07:28:35;;;;;;;25.20;13.35;;;;;;;2.00;93.79;98492.09;5052618;28;20086;-71
2020/12/28 07:31:03;;;;;;;27.77;13.25;;;;;;;1.90;94.02;98501.41;5052540;28;20036;-74
2020/12/28 07:33:29;;;;;;;28.08;13.65;;;;;;;1.89;94.19;98502.34;5034917;28;20029;-72
2020/12/28 07:36:14;;;;;;;28.13;12.80;;;;;;;1.94;94.20;98500.34;5034755;28;20044;-72
2020/12/28 07:38:44;;;;;;;31.35;12.32;;;;;;;1.97;93.87;98487.84;5052418;28;20375;-72
2020/12/28 07:41:23;;;;;;;28.58;13.30;;;;;;;1.85;93.87;98490.31;5052729;28;20465;-71
2020/12/28 07:43:53;;;;;;;26.67;12.60;;;;;;;1.90;93.63;98477.75;5052637;28;20076;-72
2020/12/28 07:46:18;;;;;;;26.80;13.13;;;;;;;1.97;93.61;98481.75;5052442;28;20424;-72
2020/12/28 07:48:46;;;;;;;29.65;13.88;;;;;;;1.88;93.58;98466.47;5052448;28;20111;-72
2020/12/28 07:51:18;;;;;;;29.70;12.80;;;;;;;2.03;93.21;98483.19;5018817;28;20033;-72
2020/12/28 07:53:49;;;;;;;34.42;13.57;;;;;;;2.03;93.15;98475.28;5034493;28;20076;-74
2020/12/28 07:56:48;;;;;;;30.85;12.80;;;;;;;2.02;93.10;98492.84;5034672;28;20047;-73
2020/12/28 07:59:38;;;;;;;34.40;13.10;;;;;;;1.99;92.96;98495.66;5046267;28;20107;-73
2020/12/28 08:02:33;;;;;;;29.58;12.40;;;;;;;1.93;92.95;98490.72;5052392;28;20025;-71
2020/12/28 08:05:00;;;;;;;33.08;12.82;;;;;;;1.85;92.42;98458.75;5021162;28;20045;-70
2020/12/28 08:07:25;;;;;;;27.88;12.93;;;;;;;1.86;92.73;98468.34;5052337;28;20061;-70
2020/12/28 08:09:53;;;;;;;30.95;13.48;;;;;;;1.69;92.82;98449.03;5052284;28;20072;-71
2020/12/28 08:12:19;;;;;;;31.55;13.30;;;;;;;2.07;92.54;98493.47;5052839;28;20377;-70
2020/12/28 08:14:55;;;;;;;27.77;12.75;;;;;;;2.21;91.52;98495.34;5021522;28;20098;-71
2020/12/28 08:17:27;;;;;;;32.50;12.20;;;;;;;2.13;91.46;98490.53;5021875;28;20047;-70
2020/12/28 08:20:11;;;;;;;32.22;12.75;;;;;;;2.21;91.33;98493.56;5056085;28;20033;-72
2020/12/28 08:22:41;;;;;;;27.52;12.23;;;;;;;2.28;90.88;98502.84;5055718;28;20082;-71
2020/12/28 08:25:09;;;;;;;27.15;12.18;;;;;;;2.34;90.21;98508.72;5037960;28;20052;-74
2020/12/28 08:27:36;;;;;;;26.63;12.45;;;;;;;2.22;89.80;98495.28;5064330;28;20516;-72
2020/12/28 08:30:07;;;;;;;24.50;12.05;;;;;;;2.32;89.72;98497.41;5075989;28;20082;-72
2020/12/28 08:32:34;;;;;;;26.52;13.00;;;;;;;2.09;89.85;98475.81;5072099;28;20470;-71
2020/12/28 08:35:01;;;;;;;25.42;12.60;;;;;;;2.37;89.96;98500.63;5077698;28;20040;-70
2020/12/28 08:37:27;;;;;;;30.30;13.50;;;;;;;2.31;89.61;98514.97;5075575;28;20064;-72
2020/12/28 08:39:53;;;;;;;26.52;13.15;;;;;;;2.21;89.69;98493.56;5075169;28;20090;-73
2020/12/28 08:42:32;;;;;;;28.15;13.00;;;;;;;2.37;89.16;98514.66;5074132;28;20442;-72
2020/12/28 08:44:58;;;;;;;25.80;12.63;;;;;;;2.18;88.33;98477.97;5075605;28;20059;-72
2020/12/28 08:47:27;;;;;;;26.95;12.48;;;;;;;2.39;88.71;98522.44;5074303;28;20450;-72
2020/12/28 08:49:52;;;;;;;25.23;12.23;;;;;;;2.16;89.21;98485.09;5075198;28;20478;-71
2020/12/28 08:52:20;;;;;;;22.63;12.60;;;;;;;2.38;88.77;98503.19;5074326;28;20031;-70
2020/12/28 08:54:55;;;;;;;25.10;12.02;;;;;;;2.61;88.23;98517.72;5074966;28;20052;-71
2020/12/28 08:57:29;;;;;;;24.30;12.15;;;;;;;2.57;88.09;98506.50;5075684;28;20496;-71
2020/12/28 08:59:56;;;;;;;24.30;12.63;;;;;;;2.59;87.50;98507.25;5074094;28;20040;-71
2020/12/28 09:02:23;;;;;;;21.75;11.70;;;;;;;2.58;87.58;98487.13;5075269;28;20082;-71
2020/12/28 09:04:49;;;;;;;25.30;12.77;;;;;;;2.65;87.47;98508.72;5074958;28;20043;-71
2020/12/28 09:07:16;;;;;;;24.13;11.88;;;;;;;2.29;87.88;98498.41;5074961;28;20473;-71
2020/12/28 09:09:48;;;;;;;25.98;12.52;;;;;;;2.53;87.72;98530.47;5074024;28;20121;-71
2020/12/28 09:12:14;;;;;;;26.13;12.38;;;;;;;2.56;87.92;98525.88;5075446;28;20177;-71
2020/12/28 09:14:40;;;;;;;25.13;13.15;;;;;;;2.60;87.90;98521.28;5075241;28;20085;-70
2020/12/28 09:17:06;;;;;;;23.48;11.82;;;;;;;2.59;88.04;98519.56;5075010;28;20033;-69
2020/12/28 09:19:32;;;;;;;28.35;12.40;;;;;;;2.58;87.76;98524.00;5073662;28;20051;-70
2020/12/28 09:21:58;;;;;;;25.58;12.20;;;;;;;2.69;87.88;98536.56;5069190;28;20124;-70
2020/12/28 09:24:25;;;;;;;28.45;12.80;;;;;;;2.59;87.37;98524.84;5072983;28;20032;-72
2020/12/28 09:26:51;;;;;;;28.45;12.70;;;;;;;2.65;87.45;98527.16;5092808;28;20056;-72
2020/12/28 09:29:17;;;;;;;27.77;12.15;;;;;;;2.66;87.55;98514.84;5092913;28;20036;-72
2020/12/28 09:31:42;;;;;;;28.27;13.80;;;;;;;2.63;87.48;98521.13;5094217;28;20032;-82
2020/12/28 09:34:08;;;;;;;23.90;12.60;;;;;;;2.73;87.43;98517.03;5094501;28;20634;-71
2020/12/28 09:36:33;;;;;;;25.98;13.20;;;;;;;2.52;87.24;98476.13;5094358;28;20020;-74
2020/12/28 09:38:59;;;;;;;28.35;13.52;;;;;;;2.48;87.55;98477.22;5093651;28;20027;-70
2020/12/28 09:41:24;;;;;;;28.90;14.48;;;;;;;2.74;87.77;98508.22;5092316;28;20097;-71
2020/12/28 09:43:50;;;;;;;25.98;13.27;;;;;;;2.71;87.45;98499.63;5092915;28;20107;-72
2020/12/28 09:46:19;;;;;;;31.73;14.80;;;;;;;2.62;88.30;98481.72;5092925;28;20031;-72
2020/12/28 09:48:46;;;;;;;30.88;15.07;;;;;;;2.69;87.98;98483.91;5092865;28;20097;-72
2020/12/28 09:51:12;;;;;;;27.85;14.10;;;;;;;2.68;87.55;98455.88;5091856;28;20039;-69
2020/12/28 09:53:39;;;;;;;29.83;14.93;;;;;;;2.86;87.50;98468.00;5091748;28;20036;-75
2020/12/28 09:56:04;;;;;;;33.90;15.05;;;;;;;2.69;87.86;98440.94;5091554;28;20441;-72
2020/12/28 09:58:32;;;;;;;29.02;13.88;;;;;;;2.90;87.54;98475.75;5091637;28;20050;-74
2020/12/28 10:00:58;;;;;;;28.20;14.65;;;;;;;2.94;87.23;98482.53;5092609;28;20024;-72
2020/12/28 10:03:23;;;;;;;33.78;14.63;;;;;;;2.99;87.22;98483.97;5074671;28;20036;-74
2020/12/28 10:05:49;;;;;;;32.47;15.13;;;;;;;3.05;87.70;98480.97;5092918;28;20042;-72
2020/12/28 10:08:14;;;;;;;35.60;16.05;;;;;;;3.22;87.17;98489.69;5092901;28;20028;-71
2020/12/28 10:10:39;;;;;;;32.70;15.77;;;;;;;3.24;86.96;98470.22;5092923;28;20028;-71
2020/12/28 10:13:05;;;;;;;28.73;13.82;;;;;;;3.26;85.76;98467.47;5077851;28;20036;-72
2020/12/28 10:15:31;;;;;;;34.38;15.20;;;;;;;3.40;85.93;98485.97;5072624;28;20024;-69
2020/12/28 10:18:28;;;;;;;30.00;15.15;;;;;;;3.41;85.70;98493.78;5071144;28;20040;-71
2020/12/28 10:20:54;;;;;;;31.40;14.32;;;;;;;3.34;85.50;98492.44;5066213;28;20167;-72
2020/12/28 10:23:20;;;;;;;29.83;14.27;;;;;;;3.32;85.54;98496.97;5071669;28;20472;-73
2020/12/28 10:25:46;;;;;;;30.45;14.18;;;;;;;3.44;84.94;98495.41;5050649;28;20037;-75
2020/12/28 10:28:11;;;;;;;30.15;14.35;;;;;;;3.14;85.49;98453.25;5006406;28;20095;-70
2020/12/28 10:30:37;;;;;;;31.95;14.60;;;;;;;3.38;85.22;98475.53;5014847;28;20041;-71
2020/12/28 10:33:03;;;;;;;28.75;14.27;;;;;;;3.54;84.47;98486.00;5049259;28;20482;-75
2020/12/28 10:35:29;;;;;;;31.33;15.60;;;;;;;3.59;84.48;98480.47;5045333;28;20387;-71
2020/12/28 10:37:58;;;;;;;30.10;14.95;;;;;;;3.65;84.48;98443.16;5006181;28;20159;-70
2020/12/28 10:40:24;;;;;;;31.00;14.70;;;;;;;3.97;83.36;98470.22;5038591;28;20045;-82
2020/12/28 10:42:52;;;;;;;29.15;15.70;;;;;;;3.97;83.36;98465.81;5026216;28;20036;-69
2020/12/28 10:45:19;;;;;;;32.03;15.68;;;;;;;3.93;83.33;98469.56;5031665;28;20072;-71
2020/12/28 10:47:47;;;;;;;28.35;15.23;;;;;;;3.84;83.82;98470.13;5014499;28;20033;-72
2020/12/28 10:50:14;;;;;;;31.63;15.27;;;;;;;3.77;82.80;98466.19;4998653;28;20048;-74
2020/12/28 10:52:40;;;;;;;32.08;15.60;;;;;;;3.69;83.05;98456.09;5014926;28;20124;-75
2020/12/28 10:55:06;;;;;;;31.95;16.10;;;;;;;3.78;83.07;98449.41;5032001;28;20156;-76
2020/12/28 10:57:31;;;;;;;32.45;15.88;;;;;;;3.64;82.81;98437.06;4998160;28;20048;-73
2020/12/28 11:00:00;;;;;;;30.65;15.07;;;;;;;3.57;83.14;98441.03;5031985;28;20037;-71
2020/12/28 11:02:26;;;;;;;30.02;15.25;;;;;;;3.56;83.83;98427.91;5031982;28;20029;-75
2020/12/28 11:04:52;;;;;;;32.63;15.32;;;;;;;3.53;83.58;98425.47;5031791;28;20033;-73
2020/12/28 11:07:19;;;;;;;30.05;14.55;;;;;;;3.61;83.76;98445.16;5014398;28;20037;-74
2020/12/28 11:09:45;;;;;;;34.08;14.95;;;;;;;3.52;83.24;98434.31;4998550;28;20037;-74
2020/12/28 11:12:12;;;;;;;29.00;14.85;;;;;;;3.59;83.30;98430.38;5013850;28;20030;-72
2020/12/28 11:14:38;;;;;;;34.80;14.68;;;;;;;3.39;83.09;98384.13;4998351;28;20045;-71
2020/12/28 11:17:05;;;;;;;32.00;15.60;;;;;;;3.60;83.59;98413.63;5032031;28;20037;-70
2020/12/28 11:19:31;;;;;;;32.53;14.88;;;;;;;3.52;83.38;98418.50;5014758;28;20045;-70
2020/12/28 11:21:57;;;;;;;34.28;15.60;;;;;;;3.55;84.14;98432.34;5031912;28;20033;-74
2020/12/28 11:24:23;;;;;;;34.63;16.33;;;;;;;3.48;84.46;98420.47;5014320;28;20030;-74